sensor_id;sensor_type;location;lat;lon;timestamp;temperature;humidity
51908;DHT22;39320;53.214;6.556;2023-09-12T00:02:06;22.40;99.90
51908;DHT22;39320;53.214;6.556;2023-09-12T00:04:32;22.50;99.90
51908;DHT22;39320;53.214;6.556;2023-09-12T00:06:57;22.50;99.90
51908;DHT22;39320;53.214;6.556;2023-09-12T00:09:23;22.40;99.90
51908;DHT22;39320;53.214;6.556;2023-09-12T00:11:49;22.40;99.90
51908;DHT22;39320;53.214;6.556;2023-09-12T00:14:16;22.40;99.90
51908;DHT22;39320;53.214;6.556;2023-09-12T00:16:42;22.40;99.90
51908;DHT22;39320;53.214;6.556;2023-09-12T00:19:08;22.40;99.90
51908;DHT22;39320;53.214;6.556;2023-09-12T00:21:33;22.30;99.90
51908;DHT22;39320;53.214;6.556;2023-09-12T00:23:59;22.40;99.90
51908;DHT22;39320;53.214;6.556;2023-09-12T00:26:26;22.30;99.90
51908;DHT22;39320;53.214;6.556;2023-09-12T00:28:52;22.30;99.90
51908;DHT22;39320;53.214;6.556;2023-09-12T00:31:18;22.30;99.90
51908;DHT22;39320;53.214;6.556;2023-09-12T00:33:43;22.30;99.90
51908;DHT22;39320;53.214;6.556;2023-09-12T00:36:09;22.30;99.90
51908;DHT22;39320;53.214;6.556;2023-09-12T00:38:35;22.30;99.90
51908;DHT22;39320;53.214;6.556;2023-09-12T00:41:01;22.20;99.90
51908;DHT22;39320;53.214;6.556;2023-09-12T00:43:26;22.20;99.90
51908;DHT22;39320;53.214;6.556;2023-09-12T00:45:52;22.20;99.90
51908;DHT22;39320;53.214;6.556;2023-09-12T00:48:19;22.20;99.90
51908;DHT22;39320;53.214;6.556;2023-09-12T00:50:47;22.20;99.90
51908;DHT22;39320;53.214;6.556;2023-09-12T00:53:15;22.20;99.90
51908;DHT22;39320;53.214;6.556;2023-09-12T00:55:45;22.20;99.90
51908;DHT22;39320;53.214;6.556;2023-09-12T00:58:13;22.10;99.90
51908;DHT22;39320;53.214;6.556;2023-09-12T01:00:40;22.10;99.90
51908;DHT22;39320;53.214;6.556;2023-09-12T01:03:07;22.10;99.90
51908;DHT22;39320;53.214;6.556;2023-09-12T01:05:33;22.10;99.90
51908;DHT22;39320;53.214;6.556;2023-09-12T01:08:00;22.10;99.90
51908;DHT22;39320;53.214;6.556;2023-09-12T01:10:26;22.10;99.90
51908;DHT22;39320;53.214;6.556;2023-09-12T01:12:52;22.10;99.90
51908;DHT22;39320;53.214;6.556;2023-09-12T01:15:18;22.10;99.90
51908;DHT22;39320;53.214;6.556;2023-09-12T01:17:45;22.10;99.90
51908;DHT22;39320;53.214;6.556;2023-09-12T01:20:19;22.10;99.90
51908;DHT22;39320;53.214;6.556;2023-09-12T01:28:41;22.10;99.90
51908;DHT22;39320;53.214;6.556;2023-09-12T01:31:09;22.10;99.90
51908;DHT22;39320;53.214;6.556;2023-09-12T01:33:35;22.10;99.90
51908;DHT22;39320;53.214;6.556;2023-09-12T01:36:01;22.10;99.90
51908;DHT22;39320;53.214;6.556;2023-09-12T01:38:27;22.10;99.90
51908;DHT22;39320;53.214;6.556;2023-09-12T01:40:55;22.10;99.90
51908;DHT22;39320;53.214;6.556;2023-09-12T01:43:23;22.00;99.90
51908;DHT22;39320;53.214;6.556;2023-09-12T01:45:52;22.00;99.90
51908;DHT22;39320;53.214;6.556;2023-09-12T01:48:20;22.00;99.90
51908;DHT22;39320;53.214;6.556;2023-09-12T01:50:48;22.00;99.90
51908;DHT22;39320;53.214;6.556;2023-09-12T01:53:15;22.00;99.90
51908;DHT22;39320;53.214;6.556;2023-09-12T01:55:45;21.90;99.90
51908;DHT22;39320;53.214;6.556;2023-09-12T01:58:12;22.00;99.90
51908;DHT22;39320;53.214;6.556;2023-09-12T02:00:39;21.90;99.90
51908;DHT22;39320;53.214;6.556;2023-09-12T02:03:05;21.90;99.90
51908;DHT22;39320;53.214;6.556;2023-09-12T02:05:31;21.90;99.90
51908;DHT22;39320;53.214;6.556;2023-09-12T02:07:57;21.80;99.90
51908;DHT22;39320;53.214;6.556;2023-09-12T02:10:26;21.80;99.90
51908;DHT22;39320;53.214;6.556;2023-09-12T02:12:51;21.80;99.90
51908;DHT22;39320;53.214;6.556;2023-09-12T02:15:17;21.70;99.90
51908;DHT22;39320;53.214;6.556;2023-09-12T02:17:43;21.70;99.90
51908;DHT22;39320;53.214;6.556;2023-09-12T02:20:09;21.80;99.90
51908;DHT22;39320;53.214;6.556;2023-09-12T02:22:35;21.80;99.90
51908;DHT22;39320;53.214;6.556;2023-09-12T02:25:03;21.70;99.90
51908;DHT22;39320;53.214;6.556;2023-09-12T02:27:30;21.70;99.90
51908;DHT22;39320;53.214;6.556;2023-09-12T02:29:55;21.70;99.90
51908;DHT22;39320;53.214;6.556;2023-09-12T02:32:21;21.70;99.90
51908;DHT22;39320;53.214;6.556;2023-09-12T02:34:47;21.70;99.90
51908;DHT22;39320;53.214;6.556;2023-09-12T02:37:13;21.70;99.90
51908;DHT22;39320;53.214;6.556;2023-09-12T02:39:38;21.70;99.90
51908;DHT22;39320;53.214;6.556;2023-09-12T02:42:04;21.70;99.90
51908;DHT22;39320;53.214;6.556;2023-09-12T02:44:30;21.70;99.90
51908;DHT22;39320;53.214;6.556;2023-09-12T02:46:56;21.70;99.90
51908;DHT22;39320;53.214;6.556;2023-09-12T02:49:22;21.50;99.90
51908;DHT22;39320;53.214;6.556;2023-09-12T02:51:47;21.50;99.90
51908;DHT22;39320;53.214;6.556;2023-09-12T02:54:13;21.50;99.90
51908;DHT22;39320;53.214;6.556;2023-09-12T02:56:39;21.50;99.90
51908;DHT22;39320;53.214;6.556;2023-09-12T02:59:04;21.50;99.90
51908;DHT22;39320;53.214;6.556;2023-09-12T03:01:30;21.50;99.90
51908;DHT22;39320;53.214;6.556;2023-09-12T03:03:57;21.50;99.90
51908;DHT22;39320;53.214;6.556;2023-09-12T03:06:23;21.40;99.90
51908;DHT22;39320;53.214;6.556;2023-09-12T03:08:49;21.40;99.90
51908;DHT22;39320;53.214;6.556;2023-09-12T03:11:15;21.40;99.90
51908;DHT22;39320;53.214;6.556;2023-09-12T03:13:41;21.40;99.90
51908;DHT22;39320;53.214;6.556;2023-09-12T03:16:11;21.50;99.90
51908;DHT22;39320;53.214;6.556;2023-09-12T03:18:37;21.40;99.90
51908;DHT22;39320;53.214;6.556;2023-09-12T03:21:03;21.40;99.90
51908;DHT22;39320;53.214;6.556;2023-09-12T03:23:29;21.40;99.90
51908;DHT22;39320;53.214;6.556;2023-09-12T03:25:54;21.40;99.90
51908;DHT22;39320;53.214;6.556;2023-09-12T03:28:20;21.40;99.90
51908;DHT22;39320;53.214;6.556;2023-09-12T03:30:46;21.40;99.90
51908;DHT22;39320;53.214;6.556;2023-09-12T03:33:12;21.40;99.90
51908;DHT22;39320;53.214;6.556;2023-09-12T03:35:38;21.40;99.90
51908;DHT22;39320;53.214;6.556;2023-09-12T03:38:03;21.40;99.90
51908;DHT22;39320;53.214;6.556;2023-09-12T03:40:30;21.50;99.90
51908;DHT22;39320;53.214;6.556;2023-09-12T03:42:56;21.40;99.90
51908;DHT22;39320;53.214;6.556;2023-09-12T03:45:22;21.40;99.90
51908;DHT22;39320;53.214;6.556;2023-09-12T03:47:48;21.40;99.90
51908;DHT22;39320;53.214;6.556;2023-09-12T03:50:14;21.30;99.90
51908;DHT22;39320;53.214;6.556;2023-09-12T03:52:40;21.20;99.90
51908;DHT22;39320;53.214;6.556;2023-09-12T03:55:06;21.30;99.90
51908;DHT22;39320;53.214;6.556;2023-09-12T03:57:31;21.30;99.90
51908;DHT22;39320;53.214;6.556;2023-09-12T03:59:57;21.30;99.90
51908;DHT22;39320;53.214;6.556;2023-09-12T04:02:23;21.20;99.90
51908;DHT22;39320;53.214;6.556;2023-09-12T04:04:49;21.20;99.90
51908;DHT22;39320;53.214;6.556;2023-09-12T04:07:15;21.20;99.90
51908;DHT22;39320;53.214;6.556;2023-09-12T04:09:41;21.20;99.90
51908;DHT22;39320;53.214;6.556;2023-09-12T04:12:07;21.20;99.90
51908;DHT22;39320;53.214;6.556;2023-09-12T04:14:34;21.20;99.90
51908;DHT22;39320;53.214;6.556;2023-09-12T04:17:00;21.20;99.90
51908;DHT22;39320;53.214;6.556;2023-09-12T04:19:26;21.10;99.90
51908;DHT22;39320;53.214;6.556;2023-09-12T04:21:52;21.10;99.90
51908;DHT22;39320;53.214;6.556;2023-09-12T04:24:17;21.10;99.90
51908;DHT22;39320;53.214;6.556;2023-09-12T04:26:44;21.10;99.90
51908;DHT22;39320;53.214;6.556;2023-09-12T04:29:10;21.10;99.90
51908;DHT22;39320;53.214;6.556;2023-09-12T04:31:36;21.10;99.90
51908;DHT22;39320;53.214;6.556;2023-09-12T04:34:02;21.10;99.90
51908;DHT22;39320;53.214;6.556;2023-09-12T04:36:28;21.10;99.90
51908;DHT22;39320;53.214;6.556;2023-09-12T04:38:54;21.10;99.90
51908;DHT22;39320;53.214;6.556;2023-09-12T04:41:19;21.10;99.90
51908;DHT22;39320;53.214;6.556;2023-09-12T04:43:46;21.10;99.90
51908;DHT22;39320;53.214;6.556;2023-09-12T04:46:12;21.20;99.90
51908;DHT22;39320;53.214;6.556;2023-09-12T04:48:38;21.10;99.90
51908;DHT22;39320;53.214;6.556;2023-09-12T04:51:04;21.00;99.90
51908;DHT22;39320;53.214;6.556;2023-09-12T04:53:31;21.00;99.90
51908;DHT22;39320;53.214;6.556;2023-09-12T04:56:03;20.90;99.90
51908;DHT22;39320;53.214;6.556;2023-09-12T04:58:30;21.00;99.90
51908;DHT22;39320;53.214;6.556;2023-09-12T05:00:56;21.00;99.90
51908;DHT22;39320;53.214;6.556;2023-09-12T05:03:24;21.00;99.90
51908;DHT22;39320;53.214;6.556;2023-09-12T05:05:52;21.00;99.90
51908;DHT22;39320;53.214;6.556;2023-09-12T05:08:17;21.00;99.90
51908;DHT22;39320;53.214;6.556;2023-09-12T05:10:47;21.00;99.90
51908;DHT22;39320;53.214;6.556;2023-09-12T05:13:13;21.00;99.90
51908;DHT22;39320;53.214;6.556;2023-09-12T05:15:41;21.10;99.90
51908;DHT22;39320;53.214;6.556;2023-09-12T05:18:07;21.00;99.90
51908;DHT22;39320;53.214;6.556;2023-09-12T05:20:33;21.10;99.90
51908;DHT22;39320;53.214;6.556;2023-09-12T05:22:59;21.00;99.90
51908;DHT22;39320;53.214;6.556;2023-09-12T05:25:25;21.00;99.90
51908;DHT22;39320;53.214;6.556;2023-09-12T05:27:52;21.00;99.90
51908;DHT22;39320;53.214;6.556;2023-09-12T05:30:18;20.90;99.90
51908;DHT22;39320;53.214;6.556;2023-09-12T05:32:44;20.90;99.90
51908;DHT22;39320;53.214;6.556;2023-09-12T05:35:10;20.90;99.90
51908;DHT22;39320;53.214;6.556;2023-09-12T05:37:35;20.90;99.90
51908;DHT22;39320;53.214;6.556;2023-09-12T05:40:01;20.90;99.90
51908;DHT22;39320;53.214;6.556;2023-09-12T05:42:28;20.90;99.90
51908;DHT22;39320;53.214;6.556;2023-09-12T05:44:54;20.80;99.90
51908;DHT22;39320;53.214;6.556;2023-09-12T05:47:21;20.70;99.90
51908;DHT22;39320;53.214;6.556;2023-09-12T05:49:47;20.70;99.90
51908;DHT22;39320;53.214;6.556;2023-09-12T05:52:12;20.60;99.90
51908;DHT22;39320;53.214;6.556;2023-09-12T05:54:39;20.50;99.90
51908;DHT22;39320;53.214;6.556;2023-09-12T05:57:07;20.50;99.90
51908;DHT22;39320;53.214;6.556;2023-09-12T05:59:35;20.60;99.90
51908;DHT22;39320;53.214;6.556;2023-09-12T06:02:05;20.70;99.90
51908;DHT22;39320;53.214;6.556;2023-09-12T06:04:32;20.80;99.90
51908;DHT22;39320;53.214;6.556;2023-09-12T06:06:58;21.00;99.90
51908;DHT22;39320;53.214;6.556;2023-09-12T06:09:25;21.00;99.90
51908;DHT22;39320;53.214;6.556;2023-09-12T06:11:51;21.00;99.90
51908;DHT22;39320;53.214;6.556;2023-09-12T06:14:17;21.00;99.90
51908;DHT22;39320;53.214;6.556;2023-09-12T06:16:42;21.00;99.90
51908;DHT22;39320;53.214;6.556;2023-09-12T06:19:08;20.90;99.90
51908;DHT22;39320;53.214;6.556;2023-09-12T06:21:34;21.00;99.90
51908;DHT22;39320;53.214;6.556;2023-09-12T06:24:10;21.10;99.90
51908;DHT22;39320;53.214;6.556;2023-09-12T06:26:37;21.10;99.90
51908;DHT22;39320;53.214;6.556;2023-09-12T06:29:03;21.20;99.90
51908;DHT22;39320;53.214;6.556;2023-09-12T06:31:29;21.40;99.90
51908;DHT22;39320;53.214;6.556;2023-09-12T06:33:56;21.40;99.90
51908;DHT22;39320;53.214;6.556;2023-09-12T06:36:26;21.40;99.90
51908;DHT22;39320;53.214;6.556;2023-09-12T06:38:58;21.50;99.90
51908;DHT22;39320;53.214;6.556;2023-09-12T06:41:27;21.50;99.90
51908;DHT22;39320;53.214;6.556;2023-09-12T06:43:53;21.50;99.90
51908;DHT22;39320;53.214;6.556;2023-09-12T06:46:21;21.60;99.90
51908;DHT22;39320;53.214;6.556;2023-09-12T06:48:47;21.60;99.90
51908;DHT22;39320;53.214;6.556;2023-09-12T06:51:16;21.50;99.90
51908;DHT22;39320;53.214;6.556;2023-09-12T06:53:43;21.40;99.90
51908;DHT22;39320;53.214;6.556;2023-09-12T06:56:09;21.40;99.90
51908;DHT22;39320;53.214;6.556;2023-09-12T06:58:35;21.40;99.90
51908;DHT22;39320;53.214;6.556;2023-09-12T07:01:05;21.30;99.90
51908;DHT22;39320;53.214;6.556;2023-09-12T07:03:35;21.30;99.90
51908;DHT22;39320;53.214;6.556;2023-09-12T07:06:02;21.20;99.90
51908;DHT22;39320;53.214;6.556;2023-09-12T07:08:31;21.20;99.90
51908;DHT22;39320;53.214;6.556;2023-09-12T07:10:57;21.10;99.90
51908;DHT22;39320;53.214;6.556;2023-09-12T07:13:25;21.10;99.90
51908;DHT22;39320;53.214;6.556;2023-09-12T07:15:51;21.20;99.90
51908;DHT22;39320;53.214;6.556;2023-09-12T07:18:17;21.30;99.90
51908;DHT22;39320;53.214;6.556;2023-09-12T07:20:45;21.20;99.90
51908;DHT22;39320;53.214;6.556;2023-09-12T07:23:11;21.20;99.90
51908;DHT22;39320;53.214;6.556;2023-09-12T07:25:40;21.20;99.90
51908;DHT22;39320;53.214;6.556;2023-09-12T07:28:07;21.30;99.90
51908;DHT22;39320;53.214;6.556;2023-09-12T07:30:34;21.40;99.90
51908;DHT22;39320;53.214;6.556;2023-09-12T07:33:03;21.40;99.90
51908;DHT22;39320;53.214;6.556;2023-09-12T07:35:30;21.30;99.90
51908;DHT22;39320;53.214;6.556;2023-09-12T07:37:56;21.40;99.90
51908;DHT22;39320;53.214;6.556;2023-09-12T07:40:22;21.40;99.90
51908;DHT22;39320;53.214;6.556;2023-09-12T07:42:48;21.40;99.90
51908;DHT22;39320;53.214;6.556;2023-09-12T07:45:14;21.40;99.90
51908;DHT22;39320;53.214;6.556;2023-09-12T07:47:40;21.20;99.90
51908;DHT22;39320;53.214;6.556;2023-09-12T07:50:06;21.20;99.90
51908;DHT22;39320;53.214;6.556;2023-09-12T07:52:33;21.20;99.90
51908;DHT22;39320;53.214;6.556;2023-09-12T07:55:02;21.20;99.90
51908;DHT22;39320;53.214;6.556;2023-09-12T07:57:31;21.20;99.90
51908;DHT22;39320;53.214;6.556;2023-09-12T07:59:57;21.20;99.90
51908;DHT22;39320;53.214;6.556;2023-09-12T08:02:24;21.10;99.90
51908;DHT22;39320;53.214;6.556;2023-09-12T08:04:50;21.20;99.90
51908;DHT22;39320;53.214;6.556;2023-09-12T08:07:22;21.20;99.90
51908;DHT22;39320;53.214;6.556;2023-09-12T08:09:53;21.20;99.90
51908;DHT22;39320;53.214;6.556;2023-09-12T08:12:20;21.30;99.90
51908;DHT22;39320;53.214;6.556;2023-09-12T08:14:47;21.40;99.90
51908;DHT22;39320;53.214;6.556;2023-09-12T08:17:13;21.40;99.90
51908;DHT22;39320;53.214;6.556;2023-09-12T08:19:40;21.30;99.90
51908;DHT22;39320;53.214;6.556;2023-09-12T08:22:06;21.30;99.90
51908;DHT22;39320;53.214;6.556;2023-09-12T08:24:36;21.30;99.90
51908;DHT22;39320;53.214;6.556;2023-09-12T08:27:03;21.30;99.90
51908;DHT22;39320;53.214;6.556;2023-09-12T08:29:29;21.30;99.90
51908;DHT22;39320;53.214;6.556;2023-09-12T08:31:56;21.30;99.90
51908;DHT22;39320;53.214;6.556;2023-09-12T08:34:22;21.30;99.90
51908;DHT22;39320;53.214;6.556;2023-09-12T08:36:49;21.20;99.90
51908;DHT22;39320;53.214;6.556;2023-09-12T08:39:16;21.30;99.90
51908;DHT22;39320;53.214;6.556;2023-09-12T08:41:42;21.30;99.90
51908;DHT22;39320;53.214;6.556;2023-09-12T08:44:09;21.30;99.90
51908;DHT22;39320;53.214;6.556;2023-09-12T08:46:38;21.30;99.90
51908;DHT22;39320;53.214;6.556;2023-09-12T08:49:06;21.30;99.90
51908;DHT22;39320;53.214;6.556;2023-09-12T08:51:32;21.40;99.90
51908;DHT22;39320;53.214;6.556;2023-09-12T08:53:59;21.40;99.90
51908;DHT22;39320;53.214;6.556;2023-09-12T08:56:25;21.50;99.90
51908;DHT22;39320;53.214;6.556;2023-09-12T08:58:51;21.50;99.90
51908;DHT22;39320;53.214;6.556;2023-09-12T09:01:18;21.60;99.90
51908;DHT22;39320;53.214;6.556;2023-09-12T09:03:45;21.70;99.90
51908;DHT22;39320;53.214;6.556;2023-09-12T09:06:12;21.70;99.90
51908;DHT22;39320;53.214;6.556;2023-09-12T09:08:40;21.50;99.90
51908;DHT22;39320;53.214;6.556;2023-09-12T09:11:09;21.60;99.90
51908;DHT22;39320;53.214;6.556;2023-09-12T09:13:36;21.60;99.90
51908;DHT22;39320;53.214;6.556;2023-09-12T09:16:15;21.60;99.90
51908;DHT22;39320;53.214;6.556;2023-09-12T09:18:58;21.90;99.90
51908;DHT22;39320;53.214;6.556;2023-09-12T09:21:28;21.40;99.90
51908;DHT22;39320;53.214;6.556;2023-09-12T09:23:59;21.50;99.90
51908;DHT22;39320;53.214;6.556;2023-09-12T09:26:25;21.50;99.90
51908;DHT22;39320;53.214;6.556;2023-09-12T09:29:14;21.50;99.90
51908;DHT22;39320;53.214;6.556;2023-09-12T09:31:45;21.50;99.90
51908;DHT22;39320;53.214;6.556;2023-09-12T09:34:16;21.30;99.90
51908;DHT22;39320;53.214;6.556;2023-09-12T09:36:49;21.40;99.90
51908;DHT22;39320;53.214;6.556;2023-09-12T09:39:20;21.50;99.90
51908;DHT22;39320;53.214;6.556;2023-09-12T09:41:50;21.50;99.90
51908;DHT22;39320;53.214;6.556;2023-09-12T09:44:16;21.40;99.90
51908;DHT22;39320;53.214;6.556;2023-09-12T09:46:44;21.40;99.90
51908;DHT22;39320;53.214;6.556;2023-09-12T09:49:16;21.40;99.90
51908;DHT22;39320;53.214;6.556;2023-09-12T09:51:44;21.50;99.90
51908;DHT22;39320;53.214;6.556;2023-09-12T09:54:12;21.50;99.90
51908;DHT22;39320;53.214;6.556;2023-09-12T09:56:47;21.50;99.90
51908;DHT22;39320;53.214;6.556;2023-09-12T09:59:15;21.60;99.90
51908;DHT22;39320;53.214;6.556;2023-09-12T10:01:43;21.60;99.90
51908;DHT22;39320;53.214;6.556;2023-09-12T10:04:10;21.60;99.90
51908;DHT22;39320;53.214;6.556;2023-09-12T10:06:37;21.60;99.90
51908;DHT22;39320;53.214;6.556;2023-09-12T10:09:12;21.60;99.90
51908;DHT22;39320;53.214;6.556;2023-09-12T10:11:46;21.70;99.90
51908;DHT22;39320;53.214;6.556;2023-09-12T10:14:13;21.70;99.90
51908;DHT22;39320;53.214;6.556;2023-09-12T10:16:50;21.70;99.90
51908;DHT22;39320;53.214;6.556;2023-09-12T10:19:26;21.70;99.90
51908;DHT22;39320;53.214;6.556;2023-09-12T10:24:29;21.80;99.90
51908;DHT22;39320;53.214;6.556;2023-09-12T10:27:01;21.80;99.90
51908;DHT22;39320;53.214;6.556;2023-09-12T10:29:35;21.80;99.90
51908;DHT22;39320;53.214;6.556;2023-09-12T10:32:02;21.90;99.90
51908;DHT22;39320;53.214;6.556;2023-09-12T10:34:31;22.00;99.90
51908;DHT22;39320;53.214;6.556;2023-09-12T10:37:02;22.00;99.90
51908;DHT22;39320;53.214;6.556;2023-09-12T10:39:36;22.00;99.90
51908;DHT22;39320;53.214;6.556;2023-09-12T10:42:04;22.10;99.90
51908;DHT22;39320;53.214;6.556;2023-09-12T10:44:32;22.10;99.90
51908;DHT22;39320;53.214;6.556;2023-09-12T10:46:59;22.10;99.90
51908;DHT22;39320;53.214;6.556;2023-09-12T10:49:28;22.10;99.90
51908;DHT22;39320;53.214;6.556;2023-09-12T10:51:57;22.20;99.90
51908;DHT22;39320;53.214;6.556;2023-09-12T10:54:26;22.20;99.90
51908;DHT22;39320;53.214;6.556;2023-09-12T10:57:06;22.20;99.90
51908;DHT22;39320;53.214;6.556;2023-09-12T10:59:35;22.30;99.90
51908;DHT22;39320;53.214;6.556;2023-09-12T11:02:36;22.30;99.90
51908;DHT22;39320;53.214;6.556;2023-09-12T11:07:58;22.30;99.90
51908;DHT22;39320;53.214;6.556;2023-09-12T11:10:24;22.30;99.90
51908;DHT22;39320;53.214;6.556;2023-09-12T11:12:52;22.40;99.90
51908;DHT22;39320;53.214;6.556;2023-09-12T11:15:26;22.40;99.90
51908;DHT22;39320;53.214;6.556;2023-09-12T11:18:05;22.40;99.90
51908;DHT22;39320;53.214;6.556;2023-09-12T11:21:00;22.40;99.90
51908;DHT22;39320;53.214;6.556;2023-09-12T11:23:29;22.40;99.90
51908;DHT22;39320;53.214;6.556;2023-09-12T11:26:07;22.20;99.90
51908;DHT22;39320;53.214;6.556;2023-09-12T11:28:33;22.40;99.90
51908;DHT22;39320;53.214;6.556;2023-09-12T11:30:59;22.50;99.90
51908;DHT22;39320;53.214;6.556;2023-09-12T11:33:26;22.50;99.90
51908;DHT22;39320;53.214;6.556;2023-09-12T11:35:53;22.50;99.90
51908;DHT22;39320;53.214;6.556;2023-09-12T11:38:27;22.50;99.90
51908;DHT22;39320;53.214;6.556;2023-09-12T11:40:54;22.50;99.90
51908;DHT22;39320;53.214;6.556;2023-09-12T11:43:22;22.60;99.90
51908;DHT22;39320;53.214;6.556;2023-09-12T11:45:49;22.60;99.90
51908;DHT22;39320;53.214;6.556;2023-09-12T11:48:15;22.60;99.90
51908;DHT22;39320;53.214;6.556;2023-09-12T11:50:41;22.70;99.90
51908;DHT22;39320;53.214;6.556;2023-09-12T11:53:11;22.70;99.90
51908;DHT22;39320;53.214;6.556;2023-09-12T11:55:48;22.70;99.90
51908;DHT22;39320;53.214;6.556;2023-09-12T11:58:16;22.80;99.90
51908;DHT22;39320;53.214;6.556;2023-09-12T12:00:49;22.80;99.90
51908;DHT22;39320;53.214;6.556;2023-09-12T12:03:18;22.80;99.90
51908;DHT22;39320;53.214;6.556;2023-09-12T12:05:44;22.80;99.90
51908;DHT22;39320;53.214;6.556;2023-09-12T12:08:11;22.70;99.90
51908;DHT22;39320;53.214;6.556;2023-09-12T12:10:39;22.70;99.90
51908;DHT22;39320;53.214;6.556;2023-09-12T12:13:16;22.70;99.90
51908;DHT22;39320;53.214;6.556;2023-09-12T12:15:43;22.80;99.90
51908;DHT22;39320;53.214;6.556;2023-09-12T12:18:09;22.70;99.90
51908;DHT22;39320;53.214;6.556;2023-09-12T12:20:35;22.70;99.90
51908;DHT22;39320;53.214;6.556;2023-09-12T12:23:01;22.80;99.90
51908;DHT22;39320;53.214;6.556;2023-09-12T12:25:32;22.80;99.90
51908;DHT22;39320;53.214;6.556;2023-09-12T12:28:00;22.70;99.90
51908;DHT22;39320;53.214;6.556;2023-09-12T12:30:34;22.70;99.90
51908;DHT22;39320;53.214;6.556;2023-09-12T12:33:08;23.20;99.90
51908;DHT22;39320;53.214;6.556;2023-09-12T12:35:44;22.70;99.90
51908;DHT22;39320;53.214;6.556;2023-09-12T12:38:17;22.70;99.90
51908;DHT22;39320;53.214;6.556;2023-09-12T12:40:46;22.70;99.90
51908;DHT22;39320;53.214;6.556;2023-09-12T12:43:18;22.70;99.90
51908;DHT22;39320;53.214;6.556;2023-09-12T12:45:57;22.60;99.90
51908;DHT22;39320;53.214;6.556;2023-09-12T12:48:35;22.60;99.90
51908;DHT22;39320;53.214;6.556;2023-09-12T12:51:29;22.60;99.90
51908;DHT22;39320;53.214;6.556;2023-09-12T12:54:04;22.50;99.90
51908;DHT22;39320;53.214;6.556;2023-09-12T12:56:33;22.50;99.90
51908;DHT22;39320;53.214;6.556;2023-09-12T12:59:00;22.50;99.90
51908;DHT22;39320;53.214;6.556;2023-09-12T13:01:29;22.50;99.90
51908;DHT22;39320;53.214;6.556;2023-09-12T13:03:58;22.50;99.90
51908;DHT22;39320;53.214;6.556;2023-09-12T13:06:27;22.50;99.90
51908;DHT22;39320;53.214;6.556;2023-09-12T13:08:55;22.50;99.90
51908;DHT22;39320;53.214;6.556;2023-09-12T13:11:29;22.40;99.90
51908;DHT22;39320;53.214;6.556;2023-09-12T13:13:55;22.40;99.90
51908;DHT22;39320;53.214;6.556;2023-09-12T13:16:21;22.40;99.90
51908;DHT22;39320;53.214;6.556;2023-09-12T13:18:48;22.40;99.90
51908;DHT22;39320;53.214;6.556;2023-09-12T13:21:16;22.40;99.90
51908;DHT22;39320;53.214;6.556;2023-09-12T13:23:42;22.40;99.90
51908;DHT22;39320;53.214;6.556;2023-09-12T13:26:09;22.50;99.90
51908;DHT22;39320;53.214;6.556;2023-09-12T13:28:35;22.60;99.90
51908;DHT22;39320;53.214;6.556;2023-09-12T13:31:01;22.60;99.90
51908;DHT22;39320;53.214;6.556;2023-09-12T13:33:28;22.60;99.90
51908;DHT22;39320;53.214;6.556;2023-09-12T13:36:02;22.50;99.90
51908;DHT22;39320;53.214;6.556;2023-09-12T13:38:31;22.70;99.90
51908;DHT22;39320;53.214;6.556;2023-09-12T13:40:57;22.70;99.90
51908;DHT22;39320;53.214;6.556;2023-09-12T13:43:29;22.70;99.90
51908;DHT22;39320;53.214;6.556;2023-09-12T13:45:58;22.70;99.90
51908;DHT22;39320;53.214;6.556;2023-09-12T13:48:33;22.70;99.90
51908;DHT22;39320;53.214;6.556;2023-09-12T13:51:01;22.90;99.90
51908;DHT22;39320;53.214;6.556;2023-09-12T13:53:27;22.80;99.90
51908;DHT22;39320;53.214;6.556;2023-09-12T13:55:53;22.90;99.90
51908;DHT22;39320;53.214;6.556;2023-09-12T13:58:22;22.80;99.90
51908;DHT22;39320;53.214;6.556;2023-09-12T14:00:48;22.90;99.90
51908;DHT22;39320;53.214;6.556;2023-09-12T14:03:14;23.00;99.90
51908;DHT22;39320;53.214;6.556;2023-09-12T14:05:40;23.00;99.90
51908;DHT22;39320;53.214;6.556;2023-09-12T14:08:06;23.10;99.90
51908;DHT22;39320;53.214;6.556;2023-09-12T14:10:32;23.10;99.90
51908;DHT22;39320;53.214;6.556;2023-09-12T14:12:58;23.20;99.90
51908;DHT22;39320;53.214;6.556;2023-09-12T14:15:24;23.20;99.90
51908;DHT22;39320;53.214;6.556;2023-09-12T14:17:51;23.20;99.90
51908;DHT22;39320;53.214;6.556;2023-09-12T14:20:17;23.10;99.90
51908;DHT22;39320;53.214;6.556;2023-09-12T14:22:45;23.10;99.90
51908;DHT22;39320;53.214;6.556;2023-09-12T14:25:11;23.10;99.90
51908;DHT22;39320;53.214;6.556;2023-09-12T14:27:43;23.20;99.90
51908;DHT22;39320;53.214;6.556;2023-09-12T14:30:10;23.20;99.90
51908;DHT22;39320;53.214;6.556;2023-09-12T14:32:39;23.20;99.90
51908;DHT22;39320;53.214;6.556;2023-09-12T14:35:05;23.20;99.90
51908;DHT22;39320;53.214;6.556;2023-09-12T14:37:34;23.20;99.90
51908;DHT22;39320;53.214;6.556;2023-09-12T14:40:03;23.10;99.90
51908;DHT22;39320;53.214;6.556;2023-09-12T14:42:30;23.00;99.90
51908;DHT22;39320;53.214;6.556;2023-09-12T14:44:56;22.90;99.90
51908;DHT22;39320;53.214;6.556;2023-09-12T14:47:22;22.80;99.90
51908;DHT22;39320;53.214;6.556;2023-09-12T14:49:53;22.70;99.90
51908;DHT22;39320;53.214;6.556;2023-09-12T14:52:28;22.70;99.90
51908;DHT22;39320;53.214;6.556;2023-09-12T14:54:55;22.70;99.90
51908;DHT22;39320;53.214;6.556;2023-09-12T14:57:23;22.60;99.90
51908;DHT22;39320;53.214;6.556;2023-09-12T14:59:50;22.70;99.90
51908;DHT22;39320;53.214;6.556;2023-09-12T15:02:17;22.70;99.90
51908;DHT22;39320;53.214;6.556;2023-09-12T15:04:43;22.80;99.90
51908;DHT22;39320;53.214;6.556;2023-09-12T15:07:09;22.80;99.90
51908;DHT22;39320;53.214;6.556;2023-09-12T15:09:34;22.70;99.90
51908;DHT22;39320;53.214;6.556;2023-09-12T15:12:00;22.60;99.90
51908;DHT22;39320;53.214;6.556;2023-09-12T15:14:26;22.50;99.90
51908;DHT22;39320;53.214;6.556;2023-09-12T15:16:52;22.50;99.90
51908;DHT22;39320;53.214;6.556;2023-09-12T15:19:18;22.50;99.90
51908;DHT22;39320;53.214;6.556;2023-09-12T15:21:44;22.80;99.90
51908;DHT22;39320;53.214;6.556;2023-09-12T15:24:15;22.50;99.90
51908;DHT22;39320;53.214;6.556;2023-09-12T15:26:51;22.60;99.90
51908;DHT22;39320;53.214;6.556;2023-09-12T15:29:17;22.70;99.90
51908;DHT22;39320;53.214;6.556;2023-09-12T15:31:44;22.70;99.90
51908;DHT22;39320;53.214;6.556;2023-09-12T15:34:10;22.70;99.90
51908;DHT22;39320;53.214;6.556;2023-09-12T15:36:41;22.70;99.90
51908;DHT22;39320;53.214;6.556;2023-09-12T15:39:08;22.80;99.90
51908;DHT22;39320;53.214;6.556;2023-09-12T15:41:34;22.90;99.90
51908;DHT22;39320;53.214;6.556;2023-09-12T15:44:00;23.10;99.90
51908;DHT22;39320;53.214;6.556;2023-09-12T15:46:29;23.20;99.90